Airfield :
LOGIN :

Register | Disclaimer

   EN    FR    IT 

 










Legend :    VFR   Marginal VFR   IFR   Intensive IFR   Very Intensive IFR
Visi :
Ceiling :
>= 8 km
>= 3000ft
5 to 8 km
1000 to 3000 ft
1500m to 5 km
500 to 1000 ft
800 to 1500m
200 to 500 ft
< 800m
< 200 ft
Symbols :   Thunderstorms  Fog  Heavy snow  Heavy precipitations  Wind > 20 kt
SIGMETs :     Misc.  Thunderstorms  Icing  Turbulence  Mountain Waves  Volcanic Ashes







- Airport Elevation : 505 ft
- IATA code : SXB
- Download approach charts


LFST - Strasbourg

CURRENT METAR :
  • 250630Z AUTO 36008KT CAVOK 18/13 Q1022 NOSIG

EXPIRED METARs :
  • 250600Z AUTO 01007KT CAVOK 18/13 Q1022 NOSIG
  • 250530Z AUTO 33004KT CAVOK 17/12 Q1022 NOSIG
  • 250500Z AUTO 31003KT CAVOK 16/12 Q1022 BECMG 02010KT
  • 250430Z AUTO 32003KT CAVOK 15/12 Q1022 BECMG 02010KT
  • 250400Z AUTO 33004KT CAVOK 14/12 Q1022 NOSIG

TAF TAF LFST
Valid from the 25 at 06:00 until the 26 at 06:00 UTC


250500Z 2506/2606 02005KT CAVOK
TEMPO 2507/2512 SCT030
TEMPO 2512/2521 03012KT
No reported NOTAMs for that airfield.



MET'MAP, your aeronautical weather chart ! - Copyright ORBIFLY December 2007 - Disclaimer

ORBIFLY MET'MAP TEAM :

Programming & Development : Alexandra Zaïnal
Concept & Development : Baudouin d'Aumeries
Co-Development & Prog : Marc-Olivier Méhu
Technical & hardware support : Manuel Goepfert

Contact : metmap@orbifly.com




SOURCES & CREDITS :

   NOAA